sensor_id;sensor_type;location;lat;lon;timestamp;P1;durP1;ratioP1;P2;durP2;ratioP2
15488;SDS011;7846;48.830;9.116;2023-04-07T00:00:09;7.83;;;6.87;;
15488;SDS011;7846;48.830;9.116;2023-04-07T00:02:55;8.17;;;6.80;;
15488;SDS011;7846;48.830;9.116;2023-04-07T00:05:40;7.03;;;6.33;;
15488;SDS011;7846;48.830;9.116;2023-04-07T00:08:24;7.57;;;6.60;;
15488;SDS011;7846;48.830;9.116;2023-04-07T00:11:09;7.37;;;6.60;;
15488;SDS011;7846;48.830;9.116;2023-04-07T00:13:53;7.67;;;6.87;;
15488;SDS011;7846;48.830;9.116;2023-04-07T00:16:37;7.57;;;6.77;;
15488;SDS011;7846;48.830;9.116;2023-04-07T00:19:21;6.87;;;6.17;;
15488;SDS011;7846;48.830;9.116;2023-04-07T00:22:06;7.10;;;6.40;;
15488;SDS011;7846;48.830;9.116;2023-04-07T00:24:50;6.60;;;6.00;;
15488;SDS011;7846;48.830;9.116;2023-04-07T00:27:34;6.60;;;6.00;;
15488;SDS011;7846;48.830;9.116;2023-04-07T00:30:18;7.97;;;6.63;;
15488;SDS011;7846;48.830;9.116;2023-04-07T00:33:03;6.83;;;6.13;;
15488;SDS011;7846;48.830;9.116;2023-04-07T00:35:48;7.17;;;6.07;;
15488;SDS011;7846;48.830;9.116;2023-04-07T00:38:32;8.30;;;6.23;;
15488;SDS011;7846;48.830;9.116;2023-04-07T00:41:16;7.23;;;6.53;;
15488;SDS011;7846;48.830;9.116;2023-04-07T00:44:00;7.90;;;7.00;;
15488;SDS011;7846;48.830;9.116;2023-04-07T00:46:46;7.50;;;6.80;;
15488;SDS011;7846;48.830;9.116;2023-04-07T00:49:30;7.87;;;7.00;;
15488;SDS011;7846;48.830;9.116;2023-04-07T00:52:14;8.97;;;7.73;;
15488;SDS011;7846;48.830;9.116;2023-04-07T00:54:59;7.50;;;6.80;;
15488;SDS011;7846;48.830;9.116;2023-04-07T00:57:43;8.30;;;6.90;;
15488;SDS011;7846;48.830;9.116;2023-04-07T01:00:29;8.93;;;7.33;;
15488;SDS011;7846;48.830;9.116;2023-04-07T01:03:17;8.60;;;7.60;;
15488;SDS011;7846;48.830;9.116;2023-04-07T01:06:04;8.17;;;7.37;;
15488;SDS011;7846;48.830;9.116;2023-04-07T01:09:01;8.57;;;7.30;;
15488;SDS011;7846;48.830;9.116;2023-04-07T01:11:58;8.23;;;7.10;;
15488;SDS011;7846;48.830;9.116;2023-04-07T01:14:50;8.93;;;7.60;;
15488;SDS011;7846;48.830;9.116;2023-04-07T01:17:44;8.20;;;7.40;;
15488;SDS011;7846;48.830;9.116;2023-04-07T01:20:31;9.13;;;7.27;;
15488;SDS011;7846;48.830;9.116;2023-04-07T01:23:30;8.20;;;7.30;;
15488;SDS011;7846;48.830;9.116;2023-04-07T01:26:39;7.60;;;6.80;;
15488;SDS011;7846;48.830;9.116;2023-04-07T01:32:13;8.30;;;7.50;;
15488;SDS011;7846;48.830;9.116;2023-04-07T01:35:02;7.97;;;7.17;;
15488;SDS011;7846;48.830;9.116;2023-04-07T01:37:48;10.57;;;7.27;;
15488;SDS011;7846;48.830;9.116;2023-04-07T01:40:34;9.37;;;7.87;;
15488;SDS011;7846;48.830;9.116;2023-04-07T01:43:28;8.20;;;7.40;;
15488;SDS011;7846;48.830;9.116;2023-04-07T01:46:15;8.40;;;7.23;;
15488;SDS011;7846;48.830;9.116;2023-04-07T01:48:59;8.50;;;7.57;;
15488;SDS011;7846;48.830;9.116;2023-04-07T01:51:45;8.97;;;7.77;;
15488;SDS011;7846;48.830;9.116;2023-04-07T01:54:33;8.37;;;7.33;;
15488;SDS011;7846;48.830;9.116;2023-04-07T01:57:17;9.97;;;7.47;;
15488;SDS011;7846;48.830;9.116;2023-04-07T02:00:02;9.23;;;7.97;;
15488;SDS011;7846;48.830;9.116;2023-04-07T02:02:48;8.47;;;7.57;;
15488;SDS011;7846;48.830;9.116;2023-04-07T02:05:37;8.83;;;7.43;;
15488;SDS011;7846;48.830;9.116;2023-04-07T02:08:22;8.90;;;7.50;;
15488;SDS011;7846;48.830;9.116;2023-04-07T02:11:10;8.27;;;7.23;;
15488;SDS011;7846;48.830;9.116;2023-04-07T02:13:55;8.23;;;7.43;;
15488;SDS011;7846;48.830;9.116;2023-04-07T02:16:41;8.63;;;7.63;;
15488;SDS011;7846;48.830;9.116;2023-04-07T02:19:25;7.93;;;7.03;;
15488;SDS011;7846;48.830;9.116;2023-04-07T02:22:13;9.07;;;7.40;;
15488;SDS011;7846;48.830;9.116;2023-04-07T02:24:59;8.30;;;7.30;;
15488;SDS011;7846;48.830;9.116;2023-04-07T02:27:43;7.87;;;7.00;;
15488;SDS011;7846;48.830;9.116;2023-04-07T02:30:27;8.50;;;7.33;;
15488;SDS011;7846;48.830;9.116;2023-04-07T02:33:11;8.70;;;7.20;;
15488;SDS011;7846;48.830;9.116;2023-04-07T02:35:55;7.77;;;7.00;;
15488;SDS011;7846;48.830;9.116;2023-04-07T02:38:40;8.20;;;7.00;;
15488;SDS011;7846;48.830;9.116;2023-04-07T02:41:24;7.87;;;7.10;;
15488;SDS011;7846;48.830;9.116;2023-04-07T02:44:09;7.83;;;7.03;;
15488;SDS011;7846;48.830;9.116;2023-04-07T02:46:53;8.63;;;7.73;;
15488;SDS011;7846;48.830;9.116;2023-04-07T02:49:37;7.77;;;6.57;;
15488;SDS011;7846;48.830;9.116;2023-04-07T02:52:21;7.83;;;6.80;;
15488;SDS011;7846;48.830;9.116;2023-04-07T02:55:05;7.87;;;7.07;;
15488;SDS011;7846;48.830;9.116;2023-04-07T02:57:49;8.00;;;7.20;;
15488;SDS011;7846;48.830;9.116;2023-04-07T03:00:33;7.30;;;6.67;;
15488;SDS011;7846;48.830;9.116;2023-04-07T03:03:17;7.53;;;6.53;;
15488;SDS011;7846;48.830;9.116;2023-04-07T03:06:01;8.57;;;6.70;;
15488;SDS011;7846;48.830;9.116;2023-04-07T03:08:45;7.07;;;6.37;;
15488;SDS011;7846;48.830;9.116;2023-04-07T03:11:29;8.23;;;7.03;;
15488;SDS011;7846;48.830;9.116;2023-04-07T03:14:13;7.67;;;6.97;;
15488;SDS011;7846;48.830;9.116;2023-04-07T03:16:57;7.60;;;6.90;;
15488;SDS011;7846;48.830;9.116;2023-04-07T03:19:41;7.27;;;6.60;;
15488;SDS011;7846;48.830;9.116;2023-04-07T03:22:25;8.17;;;6.57;;
15488;SDS011;7846;48.830;9.116;2023-04-07T03:25:09;7.87;;;6.87;;
15488;SDS011;7846;48.830;9.116;2023-04-07T03:27:53;7.47;;;6.67;;
15488;SDS011;7846;48.830;9.116;2023-04-07T03:30:37;7.47;;;6.80;;
15488;SDS011;7846;48.830;9.116;2023-04-07T03:33:21;8.10;;;7.27;;
15488;SDS011;7846;48.830;9.116;2023-04-07T03:36:05;7.30;;;6.60;;
15488;SDS011;7846;48.830;9.116;2023-04-07T03:38:50;8.13;;;7.37;;
15488;SDS011;7846;48.830;9.116;2023-04-07T03:41:34;7.90;;;7.17;;
15488;SDS011;7846;48.830;9.116;2023-04-07T03:44:18;8.80;;;7.60;;
15488;SDS011;7846;48.830;9.116;2023-04-07T03:47:02;7.30;;;6.60;;
15488;SDS011;7846;48.830;9.116;2023-04-07T03:49:46;7.63;;;6.57;;
15488;SDS011;7846;48.830;9.116;2023-04-07T03:52:30;7.30;;;6.60;;
15488;SDS011;7846;48.830;9.116;2023-04-07T03:55:14;7.90;;;7.03;;
15488;SDS011;7846;48.830;9.116;2023-04-07T03:57:58;7.63;;;6.83;;
15488;SDS011;7846;48.830;9.116;2023-04-07T04:00:43;9.43;;;7.53;;
15488;SDS011;7846;48.830;9.116;2023-04-07T04:03:27;14.23;;;11.43;;
15488;SDS011;7846;48.830;9.116;2023-04-07T04:06:11;11.50;;;10.20;;
15488;SDS011;7846;48.830;9.116;2023-04-07T04:08:56;11.43;;;9.47;;
15488;SDS011;7846;48.830;9.116;2023-04-07T04:11:40;8.93;;;8.03;;
15488;SDS011;7846;48.830;9.116;2023-04-07T04:14:24;9.00;;;8.10;;
15488;SDS011;7846;48.830;9.116;2023-04-07T04:17:09;8.50;;;7.20;;
15488;SDS011;7846;48.830;9.116;2023-04-07T04:19:53;8.20;;;6.70;;
15488;SDS011;7846;48.830;9.116;2023-04-07T04:22:38;7.20;;;6.50;;
15488;SDS011;7846;48.830;9.116;2023-04-07T04:25:40;7.53;;;6.83;;
15488;SDS011;7846;48.830;9.116;2023-04-07T04:28:24;7.70;;;6.90;;
15488;SDS011;7846;48.830;9.116;2023-04-07T04:31:08;8.23;;;7.43;;
15488;SDS011;7846;48.830;9.116;2023-04-07T04:33:52;8.63;;;7.50;;
15488;SDS011;7846;48.830;9.116;2023-04-07T04:36:36;7.80;;;7.07;;
15488;SDS011;7846;48.830;9.116;2023-04-07T04:39:21;8.67;;;7.07;;
15488;SDS011;7846;48.830;9.116;2023-04-07T04:42:06;8.37;;;7.50;;
15488;SDS011;7846;48.830;9.116;2023-04-07T04:44:51;8.07;;;7.27;;
15488;SDS011;7846;48.830;9.116;2023-04-07T04:47:36;7.57;;;6.77;;
15488;SDS011;7846;48.830;9.116;2023-04-07T04:50:22;7.80;;;7.03;;
15488;SDS011;7846;48.830;9.116;2023-04-07T04:53:07;11.13;;;7.17;;
15488;SDS011;7846;48.830;9.116;2023-04-07T04:55:53;7.50;;;6.80;;
15488;SDS011;7846;48.830;9.116;2023-04-07T04:58:39;9.23;;;7.67;;
15488;SDS011;7846;48.830;9.116;2023-04-07T05:01:24;8.03;;;7.07;;
15488;SDS011;7846;48.830;9.116;2023-04-07T05:04:08;7.93;;;7.13;;
15488;SDS011;7846;48.830;9.116;2023-04-07T05:06:53;8.07;;;6.87;;
15488;SDS011;7846;48.830;9.116;2023-04-07T05:09:38;7.53;;;6.80;;
15488;SDS011;7846;48.830;9.116;2023-04-07T05:12:22;7.90;;;7.13;;
15488;SDS011;7846;48.830;9.116;2023-04-07T05:15:07;7.13;;;6.43;;
15488;SDS011;7846;48.830;9.116;2023-04-07T05:17:53;7.87;;;6.83;;
15488;SDS011;7846;48.830;9.116;2023-04-07T05:20:38;7.40;;;6.70;;
15488;SDS011;7846;48.830;9.116;2023-04-07T05:23:22;9.10;;;8.30;;
15488;SDS011;7846;48.830;9.116;2023-04-07T05:26:06;8.43;;;7.63;;
15488;SDS011;7846;48.830;9.116;2023-04-07T05:28:50;8.83;;;6.80;;
15488;SDS011;7846;48.830;9.116;2023-04-07T05:31:34;7.60;;;6.90;;
15488;SDS011;7846;48.830;9.116;2023-04-07T05:34:25;7.63;;;6.87;;
15488;SDS011;7846;48.830;9.116;2023-04-07T05:37:09;7.80;;;7.00;;
15488;SDS011;7846;48.830;9.116;2023-04-07T05:39:53;7.50;;;6.80;;
15488;SDS011;7846;48.830;9.116;2023-04-07T05:42:39;9.77;;;8.00;;
15488;SDS011;7846;48.830;9.116;2023-04-07T05:45:24;10.00;;;8.40;;
15488;SDS011;7846;48.830;9.116;2023-04-07T05:48:08;11.20;;;9.10;;
15488;SDS011;7846;48.830;9.116;2023-04-07T05:50:52;7.87;;;7.07;;
15488;SDS011;7846;48.830;9.116;2023-04-07T05:53:36;7.43;;;6.73;;
15488;SDS011;7846;48.830;9.116;2023-04-07T05:56:21;8.33;;;7.53;;
15488;SDS011;7846;48.830;9.116;2023-04-07T05:59:06;7.87;;;6.93;;
15488;SDS011;7846;48.830;9.116;2023-04-07T06:01:50;8.33;;;7.47;;
15488;SDS011;7846;48.830;9.116;2023-04-07T06:04:35;7.30;;;6.60;;
15488;SDS011;7846;48.830;9.116;2023-04-07T06:07:19;7.60;;;6.80;;
15488;SDS011;7846;48.830;9.116;2023-04-07T06:10:03;8.23;;;6.60;;
15488;SDS011;7846;48.830;9.116;2023-04-07T06:12:49;7.97;;;7.17;;
15488;SDS011;7846;48.830;9.116;2023-04-07T06:15:33;7.87;;;7.07;;
15488;SDS011;7846;48.830;9.116;2023-04-07T06:18:17;7.70;;;6.90;;
15488;SDS011;7846;48.830;9.116;2023-04-07T06:21:01;7.30;;;6.60;;
15488;SDS011;7846;48.830;9.116;2023-04-07T06:23:45;7.50;;;6.80;;
15488;SDS011;7846;48.830;9.116;2023-04-07T06:26:32;8.30;;;6.90;;
15488;SDS011;7846;48.830;9.116;2023-04-07T06:29:17;8.30;;;6.40;;
15488;SDS011;7846;48.830;9.116;2023-04-07T06:32:01;6.90;;;6.07;;
15488;SDS011;7846;48.830;9.116;2023-04-07T06:34:46;7.43;;;6.63;;
15488;SDS011;7846;48.830;9.116;2023-04-07T06:37:30;7.10;;;6.40;;
15488;SDS011;7846;48.830;9.116;2023-04-07T06:40:14;7.13;;;6.43;;
15488;SDS011;7846;48.830;9.116;2023-04-07T06:42:58;7.70;;;6.50;;
15488;SDS011;7846;48.830;9.116;2023-04-07T06:45:42;7.07;;;5.93;;
15488;SDS011;7846;48.830;9.116;2023-04-07T06:48:27;7.90;;;6.30;;
15488;SDS011;7846;48.830;9.116;2023-04-07T06:51:11;7.03;;;6.33;;
15488;SDS011;7846;48.830;9.116;2023-04-07T06:53:55;7.13;;;6.43;;
15488;SDS011;7846;48.830;9.116;2023-04-07T06:56:41;7.53;;;6.83;;
15488;SDS011;7846;48.830;9.116;2023-04-07T06:59:25;6.83;;;6.07;;
15488;SDS011;7846;48.830;9.116;2023-04-07T07:02:09;7.63;;;6.77;;
15488;SDS011;7846;48.830;9.116;2023-04-07T07:04:53;8.33;;;6.70;;
15488;SDS011;7846;48.830;9.116;2023-04-07T07:07:37;9.13;;;6.67;;
15488;SDS011;7846;48.830;9.116;2023-04-07T07:10:21;7.80;;;6.60;;
15488;SDS011;7846;48.830;9.116;2023-04-07T07:13:06;6.93;;;6.23;;
15488;SDS011;7846;48.830;9.116;2023-04-07T07:15:50;7.87;;;7.07;;
15488;SDS011;7846;48.830;9.116;2023-04-07T07:18:34;7.20;;;6.50;;
15488;SDS011;7846;48.830;9.116;2023-04-07T07:21:19;6.53;;;5.93;;
15488;SDS011;7846;48.830;9.116;2023-04-07T07:24:04;7.50;;;6.73;;
15488;SDS011;7846;48.830;9.116;2023-04-07T07:26:49;7.17;;;6.33;;
15488;SDS011;7846;48.830;9.116;2023-04-07T07:29:33;7.27;;;6.60;;
15488;SDS011;7846;48.830;9.116;2023-04-07T07:32:18;8.23;;;7.10;;
15488;SDS011;7846;48.830;9.116;2023-04-07T07:35:03;9.20;;;7.03;;
15488;SDS011;7846;48.830;9.116;2023-04-07T07:37:48;9.63;;;7.67;;
15488;SDS011;7846;48.830;9.116;2023-04-07T07:40:32;8.77;;;7.87;;
15488;SDS011;7846;48.830;9.116;2023-04-07T07:43:16;8.33;;;7.53;;
15488;SDS011;7846;48.830;9.116;2023-04-07T07:46:00;7.67;;;6.87;;
15488;SDS011;7846;48.830;9.116;2023-04-07T07:48:44;8.00;;;7.17;;
15488;SDS011;7846;48.830;9.116;2023-04-07T07:51:29;7.30;;;6.63;;
15488;SDS011;7846;48.830;9.116;2023-04-07T07:54:13;6.90;;;6.20;;
15488;SDS011;7846;48.830;9.116;2023-04-07T07:56:57;6.83;;;5.67;;
15488;SDS011;7846;48.830;9.116;2023-04-07T07:59:42;6.43;;;5.60;;
15488;SDS011;7846;48.830;9.116;2023-04-07T08:02:26;6.80;;;5.30;;
15488;SDS011;7846;48.830;9.116;2023-04-07T08:05:13;5.53;;;4.97;;
15488;SDS011;7846;48.830;9.116;2023-04-07T08:07:58;6.77;;;5.53;;
15488;SDS011;7846;48.830;9.116;2023-04-07T08:10:43;6.30;;;5.70;;
15488;SDS011;7846;48.830;9.116;2023-04-07T08:13:27;6.83;;;5.33;;
15488;SDS011;7846;48.830;9.116;2023-04-07T08:16:11;6.40;;;5.80;;
15488;SDS011;7846;48.830;9.116;2023-04-07T08:18:56;5.63;;;5.10;;
15488;SDS011;7846;48.830;9.116;2023-04-07T08:21:41;6.27;;;5.63;;
15488;SDS011;7846;48.830;9.116;2023-04-07T08:24:27;5.37;;;4.83;;
15488;SDS011;7846;48.830;9.116;2023-04-07T08:27:11;6.30;;;4.90;;
15488;SDS011;7846;48.830;9.116;2023-04-07T08:29:59;5.70;;;5.20;;
15488;SDS011;7846;48.830;9.116;2023-04-07T08:32:43;6.10;;;5.33;;
15488;SDS011;7846;48.830;9.116;2023-04-07T08:35:27;5.97;;;5.13;;
15488;SDS011;7846;48.830;9.116;2023-04-07T08:38:13;5.23;;;4.70;;
15488;SDS011;7846;48.830;9.116;2023-04-07T08:40:57;5.60;;;5.10;;
15488;SDS011;7846;48.830;9.116;2023-04-07T08:43:50;6.10;;;5.50;;
15488;SDS011;7846;48.830;9.116;2023-04-07T08:46:37;6.13;;;4.97;;
15488;SDS011;7846;48.830;9.116;2023-04-07T08:49:22;6.00;;;5.40;;
15488;SDS011;7846;48.830;9.116;2023-04-07T08:52:11;6.43;;;5.23;;
15488;SDS011;7846;48.830;9.116;2023-04-07T08:54:58;5.40;;;4.90;;
15488;SDS011;7846;48.830;9.116;2023-04-07T08:57:45;5.93;;;5.30;;
15488;SDS011;7846;48.830;9.116;2023-04-07T09:00:29;7.13;;;5.27;;
15488;SDS011;7846;48.830;9.116;2023-04-07T09:03:14;6.00;;;5.40;;
15488;SDS011;7846;48.830;9.116;2023-04-07T09:06:00;6.67;;;4.60;;
15488;SDS011;7846;48.830;9.116;2023-04-07T09:08:44;5.57;;;5.07;;
15488;SDS011;7846;48.830;9.116;2023-04-07T09:11:29;5.57;;;5.07;;
15488;SDS011;7846;48.830;9.116;2023-04-07T09:14:14;5.13;;;4.73;;
15488;SDS011;7846;48.830;9.116;2023-04-07T09:17:01;5.00;;;4.60;;
15488;SDS011;7846;48.830;9.116;2023-04-07T09:19:47;4.97;;;3.67;;
15488;SDS011;7846;48.830;9.116;2023-04-07T09:25:23;4.90;;;3.87;;
15488;SDS011;7846;48.830;9.116;2023-04-07T09:28:09;4.63;;;4.10;;
15488;SDS011;7846;48.830;9.116;2023-04-07T09:30:56;4.97;;;4.10;;
15488;SDS011;7846;48.830;9.116;2023-04-07T09:33:40;6.87;;;4.93;;
15488;SDS011;7846;48.830;9.116;2023-04-07T09:36:27;5.30;;;4.80;;
15488;SDS011;7846;48.830;9.116;2023-04-07T09:39:16;7.07;;;4.83;;
15488;SDS011;7846;48.830;9.116;2023-04-07T09:42:03;7.47;;;5.30;;
15488;SDS011;7846;48.830;9.116;2023-04-07T09:44:49;4.97;;;4.10;;
15488;SDS011;7846;48.830;9.116;2023-04-07T09:47:33;5.33;;;3.90;;
15488;SDS011;7846;48.830;9.116;2023-04-07T09:50:29;5.10;;;4.07;;
15488;SDS011;7846;48.830;9.116;2023-04-07T09:53:16;4.37;;;3.53;;
15488;SDS011;7846;48.830;9.116;2023-04-07T09:56:04;5.07;;;3.90;;
15488;SDS011;7846;48.830;9.116;2023-04-07T09:58:49;4.37;;;3.60;;
15488;SDS011;7846;48.830;9.116;2023-04-07T10:01:37;5.93;;;4.00;;
15488;SDS011;7846;48.830;9.116;2023-04-07T10:04:22;4.87;;;3.67;;
15488;SDS011;7846;48.830;9.116;2023-04-07T10:07:07;4.83;;;3.93;;
15488;SDS011;7846;48.830;9.116;2023-04-07T10:09:52;6.23;;;4.47;;
15488;SDS011;7846;48.830;9.116;2023-04-07T10:12:37;6.23;;;4.00;;
15488;SDS011;7846;48.830;9.116;2023-04-07T10:15:21;4.57;;;4.10;;
15488;SDS011;7846;48.830;9.116;2023-04-07T10:18:05;5.53;;;4.40;;
15488;SDS011;7846;48.830;9.116;2023-04-07T10:20:51;6.20;;;4.43;;
15488;SDS011;7846;48.830;9.116;2023-04-07T10:26:42;5.13;;;3.70;;
15488;SDS011;7846;48.830;9.116;2023-04-07T10:29:28;5.73;;;4.00;;
15488;SDS011;7846;48.830;9.116;2023-04-07T10:32:24;4.30;;;3.90;;
15488;SDS011;7846;48.830;9.116;2023-04-07T10:35:08;4.57;;;4.17;;
15488;SDS011;7846;48.830;9.116;2023-04-07T10:40:56;4.90;;;3.57;;
15488;SDS011;7846;48.830;9.116;2023-04-07T10:43:41;3.93;;;3.43;;
15488;SDS011;7846;48.830;9.116;2023-04-07T10:47:01;3.97;;;3.63;;
15488;SDS011;7846;48.830;9.116;2023-04-07T10:53:07;5.10;;;4.60;;
15488;SDS011;7846;48.830;9.116;2023-04-07T10:55:53;6.37;;;4.47;;
15488;SDS011;7846;48.830;9.116;2023-04-07T10:58:39;5.80;;;4.60;;
15488;SDS011;7846;48.830;9.116;2023-04-07T11:01:23;5.23;;;4.70;;
15488;SDS011;7846;48.830;9.116;2023-04-07T11:04:10;5.17;;;4.67;;
15488;SDS011;7846;48.830;9.116;2023-04-07T11:06:55;7.37;;;5.13;;
15488;SDS011;7846;48.830;9.116;2023-04-07T11:09:40;5.83;;;4.60;;
15488;SDS011;7846;48.830;9.116;2023-04-07T11:12:25;5.63;;;4.90;;
15488;SDS011;7846;48.830;9.116;2023-04-07T11:15:17;5.13;;;4.53;;
15488;SDS011;7846;48.830;9.116;2023-04-07T11:18:06;4.90;;;4.40;;
15488;SDS011;7846;48.830;9.116;2023-04-07T11:20:55;5.37;;;4.87;;
15488;SDS011;7846;48.830;9.116;2023-04-07T11:23:41;6.97;;;5.20;;
15488;SDS011;7846;48.830;9.116;2023-04-07T11:26:26;5.97;;;5.20;;
15488;SDS011;7846;48.830;9.116;2023-04-07T11:29:10;5.57;;;4.77;;
15488;SDS011;7846;48.830;9.116;2023-04-07T11:31:56;6.83;;;5.10;;
15488;SDS011;7846;48.830;9.116;2023-04-07T11:34:41;5.73;;;5.13;;
15488;SDS011;7846;48.830;9.116;2023-04-07T11:37:26;6.23;;;5.63;;
15488;SDS011;7846;48.830;9.116;2023-04-07T11:40:11;8.10;;;5.97;;
15488;SDS011;7846;48.830;9.116;2023-04-07T11:42:59;9.27;;;6.03;;
15488;SDS011;7846;48.830;9.116;2023-04-07T11:45:46;5.83;;;5.07;;
15488;SDS011;7846;48.830;9.116;2023-04-07T11:48:45;6.17;;;4.10;;
15488;SDS011;7846;48.830;9.116;2023-04-07T11:51:33;5.70;;;4.47;;
15488;SDS011;7846;48.830;9.116;2023-04-07T11:54:17;7.00;;;5.73;;
15488;SDS011;7846;48.830;9.116;2023-04-07T11:57:01;7.70;;;5.77;;
15488;SDS011;7846;48.830;9.116;2023-04-07T11:59:45;6.33;;;5.83;;
15488;SDS011;7846;48.830;9.116;2023-04-07T12:02:33;5.80;;;5.30;;
15488;SDS011;7846;48.830;9.116;2023-04-07T12:05:17;5.13;;;4.63;;
15488;SDS011;7846;48.830;9.116;2023-04-07T12:08:01;6.00;;;5.07;;
15488;SDS011;7846;48.830;9.116;2023-04-07T12:10:45;4.43;;;4.00;;
15488;SDS011;7846;48.830;9.116;2023-04-07T12:13:30;4.80;;;4.10;;
15488;SDS011;7846;48.830;9.116;2023-04-07T12:16:14;5.20;;;3.90;;
15488;SDS011;7846;48.830;9.116;2023-04-07T12:19:03;4.93;;;4.27;;
15488;SDS011;7846;48.830;9.116;2023-04-07T12:21:47;4.20;;;3.87;;
15488;SDS011;7846;48.830;9.116;2023-04-07T12:24:31;4.10;;;3.80;;
15488;SDS011;7846;48.830;9.116;2023-04-07T12:27:15;4.60;;;4.20;;
15488;SDS011;7846;48.830;9.116;2023-04-07T12:30:03;5.93;;;4.33;;
15488;SDS011;7846;48.830;9.116;2023-04-07T12:32:48;6.97;;;4.70;;
15488;SDS011;7846;48.830;9.116;2023-04-07T12:35:32;5.60;;;4.33;;
15488;SDS011;7846;48.830;9.116;2023-04-07T12:38:16;5.03;;;4.47;;
15488;SDS011;7846;48.830;9.116;2023-04-07T12:41:00;5.67;;;5.07;;
15488;SDS011;7846;48.830;9.116;2023-04-07T12:43:45;5.70;;;5.20;;
15488;SDS011;7846;48.830;9.116;2023-04-07T12:46:30;6.70;;;4.87;;
15488;SDS011;7846;48.830;9.116;2023-04-07T12:49:14;4.97;;;4.13;;
15488;SDS011;7846;48.830;9.116;2023-04-07T12:51:59;4.10;;;3.80;;
15488;SDS011;7846;48.830;9.116;2023-04-07T12:54:43;4.87;;;4.07;;
15488;SDS011;7846;48.830;9.116;2023-04-07T12:57:27;3.70;;;3.40;;
15488;SDS011;7846;48.830;9.116;2023-04-07T13:00:12;3.73;;;3.30;;
15488;SDS011;7846;48.830;9.116;2023-04-07T13:02:56;4.47;;;3.13;;
15488;SDS011;7846;48.830;9.116;2023-04-07T13:05:41;4.33;;;3.90;;
15488;SDS011;7846;48.830;9.116;2023-04-07T13:08:25;5.60;;;3.80;;
15488;SDS011;7846;48.830;9.116;2023-04-07T13:11:10;3.43;;;3.00;;
15488;SDS011;7846;48.830;9.116;2023-04-07T13:13:54;3.97;;;3.30;;
15488;SDS011;7846;48.830;9.116;2023-04-07T13:16:38;3.47;;;3.17;;
15488;SDS011;7846;48.830;9.116;2023-04-07T13:19:22;4.37;;;3.10;;
15488;SDS011;7846;48.830;9.116;2023-04-07T13:22:06;5.33;;;3.40;;
15488;SDS011;7846;48.830;9.116;2023-04-07T13:24:50;4.73;;;3.03;;
15488;SDS011;7846;48.830;9.116;2023-04-07T13:27:34;3.80;;;3.00;;
15488;SDS011;7846;48.830;9.116;2023-04-07T13:30:19;3.83;;;3.20;;
15488;SDS011;7846;48.830;9.116;2023-04-07T13:33:03;3.67;;;3.33;;
15488;SDS011;7846;48.830;9.116;2023-04-07T13:35:47;4.87;;;3.50;;
15488;SDS011;7846;48.830;9.116;2023-04-07T13:38:33;3.53;;;3.23;;
15488;SDS011;7846;48.830;9.116;2023-04-07T13:41:17;4.77;;;3.50;;
15488;SDS011;7846;48.830;9.116;2023-04-07T13:44:01;4.37;;;3.60;;
15488;SDS011;7846;48.830;9.116;2023-04-07T13:46:48;4.53;;;3.20;;
15488;SDS011;7846;48.830;9.116;2023-04-07T13:49:31;3.60;;;3.13;;
15488;SDS011;7846;48.830;9.116;2023-04-07T13:52:16;4.20;;;3.63;;
15488;SDS011;7846;48.830;9.116;2023-04-07T13:55:01;5.17;;;4.00;;
15488;SDS011;7846;48.830;9.116;2023-04-07T13:57:47;6.07;;;4.60;;
15488;SDS011;7846;48.830;9.116;2023-04-07T14:00:31;5.03;;;4.00;;
15488;SDS011;7846;48.830;9.116;2023-04-07T14:03:15;5.50;;;3.83;;
15488;SDS011;7846;48.830;9.116;2023-04-07T14:05:59;5.00;;;3.70;;
15488;SDS011;7846;48.830;9.116;2023-04-07T14:08:44;3.97;;;3.20;;
15488;SDS011;7846;48.830;9.116;2023-04-07T14:11:28;3.93;;;3.10;;
15488;SDS011;7846;48.830;9.116;2023-04-07T14:14:12;4.23;;;2.90;;
15488;SDS011;7846;48.830;9.116;2023-04-07T14:17:01;3.57;;;2.90;;
15488;SDS011;7846;48.830;9.116;2023-04-07T14:19:45;3.03;;;2.30;;
15488;SDS011;7846;48.830;9.116;2023-04-07T14:22:42;3.97;;;2.63;;
15488;SDS011;7846;48.830;9.116;2023-04-07T14:25:26;4.63;;;3.00;;
15488;SDS011;7846;48.830;9.116;2023-04-07T14:28:09;5.30;;;2.77;;
15488;SDS011;7846;48.830;9.116;2023-04-07T14:30:53;3.97;;;2.90;;
15488;SDS011;7846;48.830;9.116;2023-04-07T14:33:37;3.47;;;2.80;;
15488;SDS011;7846;48.830;9.116;2023-04-07T14:36:22;3.10;;;2.80;;
15488;SDS011;7846;48.830;9.116;2023-04-07T14:39:06;3.53;;;2.73;;
15488;SDS011;7846;48.830;9.116;2023-04-07T14:41:51;3.33;;;2.73;;
15488;SDS011;7846;48.830;9.116;2023-04-07T14:44:35;4.57;;;3.10;;
15488;SDS011;7846;48.830;9.116;2023-04-07T14:47:20;5.00;;;3.00;;
15488;SDS011;7846;48.830;9.116;2023-04-07T14:50:04;5.13;;;3.00;;
15488;SDS011;7846;48.830;9.116;2023-04-07T14:52:48;5.03;;;3.43;;
15488;SDS011;7846;48.830;9.116;2023-04-07T14:55:32;4.57;;;3.83;;
15488;SDS011;7846;48.830;9.116;2023-04-07T14:58:17;6.57;;;4.03;;
15488;SDS011;7846;48.830;9.116;2023-04-07T15:01:01;5.17;;;3.47;;
15488;SDS011;7846;48.830;9.116;2023-04-07T15:03:45;4.47;;;3.10;;
15488;SDS011;7846;48.830;9.116;2023-04-07T15:06:30;4.77;;;3.37;;
15488;SDS011;7846;48.830;9.116;2023-04-07T15:09:15;6.50;;;3.27;;
15488;SDS011;7846;48.830;9.116;2023-04-07T15:11:59;4.40;;;3.03;;
15488;SDS011;7846;48.830;9.116;2023-04-07T15:14:43;4.07;;;3.13;;
15488;SDS011;7846;48.830;9.116;2023-04-07T15:17:28;4.50;;;3.43;;
15488;SDS011;7846;48.830;9.116;2023-04-07T15:20:13;3.87;;;3.30;;
15488;SDS011;7846;48.830;9.116;2023-04-07T15:22:57;4.73;;;3.40;;
15488;SDS011;7846;48.830;9.116;2023-04-07T15:25:43;3.50;;;3.20;;
15488;SDS011;7846;48.830;9.116;2023-04-07T15:28:27;4.20;;;3.23;;
15488;SDS011;7846;48.830;9.116;2023-04-07T15:31:10;3.93;;;3.10;;
15488;SDS011;7846;48.830;9.116;2023-04-07T15:33:54;4.57;;;3.33;;
15488;SDS011;7846;48.830;9.116;2023-04-07T15:36:38;4.50;;;3.00;;
15488;SDS011;7846;48.830;9.116;2023-04-07T15:39:22;3.53;;;3.17;;
15488;SDS011;7846;48.830;9.116;2023-04-07T15:42:09;5.47;;;3.40;;
15488;SDS011;7846;48.830;9.116;2023-04-07T15:44:55;4.30;;;3.40;;
15488;SDS011;7846;48.830;9.116;2023-04-07T15:47:39;4.27;;;3.40;;
15488;SDS011;7846;48.830;9.116;2023-04-07T15:50:23;3.97;;;3.30;;
15488;SDS011;7846;48.830;9.116;2023-04-07T15:53:08;3.73;;;3.27;;
15488;SDS011;7846;48.830;9.116;2023-04-07T15:55:51;4.37;;;3.10;;
15488;SDS011;7846;48.830;9.116;2023-04-07T15:58:35;3.73;;;3.33;;
15488;SDS011;7846;48.830;9.116;2023-04-07T16:01:19;5.10;;;3.50;;
15488;SDS011;7846;48.830;9.116;2023-04-07T16:04:03;5.37;;;3.60;;
15488;SDS011;7846;48.830;9.116;2023-04-07T16:06:47;3.63;;;3.33;;
15488;SDS011;7846;48.830;9.116;2023-04-07T16:09:31;5.30;;;3.60;;
15488;SDS011;7846;48.830;9.116;2023-04-07T16:12:16;4.80;;;3.50;;
15488;SDS011;7846;48.830;9.116;2023-04-07T16:15:01;4.00;;;3.30;;
15488;SDS011;7846;48.830;9.116;2023-04-07T16:17:46;6.07;;;3.60;;
15488;SDS011;7846;48.830;9.116;2023-04-07T16:20:31;4.30;;;3.90;;
15488;SDS011;7846;48.830;9.116;2023-04-07T16:23:15;4.30;;;3.90;;
15488;SDS011;7846;48.830;9.116;2023-04-07T16:25:58;5.10;;;3.70;;
15488;SDS011;7846;48.830;9.116;2023-04-07T16:28:43;4.13;;;3.70;;
15488;SDS011;7846;48.830;9.116;2023-04-07T16:31:29;4.43;;;3.97;;
15488;SDS011;7846;48.830;9.116;2023-04-07T16:34:13;4.97;;;3.70;;
15488;SDS011;7846;48.830;9.116;2023-04-07T16:36:58;5.93;;;4.00;;
15488;SDS011;7846;48.830;9.116;2023-04-07T16:39:42;3.97;;;3.57;;
15488;SDS011;7846;48.830;9.116;2023-04-07T16:42:27;5.30;;;3.67;;
15488;SDS011;7846;48.830;9.116;2023-04-07T16:45:11;3.87;;;3.57;;
15488;SDS011;7846;48.830;9.116;2023-04-07T16:47:56;5.30;;;3.70;;
15488;SDS011;7846;48.830;9.116;2023-04-07T16:50:41;4.50;;;3.70;;
15488;SDS011;7846;48.830;9.116;2023-04-07T16:53:27;4.63;;;3.37;;
15488;SDS011;7846;48.830;9.116;2023-04-07T16:56:17;3.57;;;3.27;;
15488;SDS011;7846;48.830;9.116;2023-04-07T16:59:04;3.40;;;3.10;;
15488;SDS011;7846;48.830;9.116;2023-04-07T17:01:50;3.90;;;3.13;;
15488;SDS011;7846;48.830;9.116;2023-04-07T17:04:36;5.00;;;3.30;;